Toronto, Canada
Current Conditions -  °F | °C
As of 10:00 PM on Thursday 27 Nov 2014 (Local Time) from CYYZ Reporting Station
Broken Clouds Broken Clouds  
Wind Chill: -9°   Ceiling: 10000
Heat Index: -2°   Visibility: 15mi
Dew Point: -6°   Wind: 17mph
Humidity: 74%   Direction: 320°NW
Pressure: 30.13"   Gusts: 24mph
Location:  43.65°N, 79.39°W
Report Text: CYYZ 280300Z 32015G21KT 15SM FEW020 BKN100 M02/M06 A3013 RMK SF1AC6 SLP211
Loading
Personal Weather Stations






























Interactive Weather Map New forecast layout! Learn more

10-Day Weather Forecast

Advertisements
Track Severe Weather on mobile